createdAt,value
2019-04-03T00:00:45.070Z,1000.16
2019-04-03T00:01:45.067Z,1000.19
2019-04-03T00:02:45.058Z,1000.17
2019-04-03T00:03:45.055Z,1000.20
2019-04-03T00:04:45.028Z,1000.21
2019-04-03T00:05:45.009Z,1000.22
2019-04-03T00:06:45.002Z,1000.22
2019-04-03T00:07:45.004Z,1000.19
2019-04-03T00:08:44.995Z,1000.21
2019-04-03T00:09:44.969Z,1000.24
2019-04-03T00:10:44.953Z,1000.20
2019-04-03T00:11:44.944Z,1000.22
2019-04-03T00:12:44.977Z,1000.24
2019-04-03T00:13:44.935Z,1000.18
2019-04-03T00:14:44.933Z,1000.17
2019-04-03T00:15:45.270Z,1000.19
2019-04-03T00:16:45.522Z,1000.17
2019-04-03T00:17:45.955Z,1000.21
2019-04-03T00:18:46.872Z,1000.19
2019-04-03T00:19:45.770Z,1000.22
2019-04-03T00:20:44.850Z,1000.15
2019-04-03T00:21:44.836Z,1000.17
2019-04-03T00:22:46.465Z,1000.23
2019-04-03T00:23:44.965Z,1000.21
2019-04-03T00:24:44.801Z,1000.25
2019-04-03T00:25:44.804Z,1000.21
2019-04-03T00:26:44.795Z,1000.18
2019-04-03T00:27:44.775Z,1000.25
2019-04-03T00:28:44.761Z,1000.17
2019-04-03T00:29:44.745Z,1000.21
2019-04-03T00:30:44.750Z,1000.22
2019-04-03T00:31:44.725Z,1000.24
2019-04-03T00:32:44.719Z,1000.19
2019-04-03T00:33:44.703Z,1000.23
2019-04-03T00:34:44.700Z,1000.21
2019-04-03T00:35:44.693Z,1000.16
2019-04-03T00:36:44.667Z,1000.13
2019-04-03T00:37:44.653Z,1000.10
2019-04-03T00:38:44.643Z,1000.16
2019-04-03T00:39:44.651Z,1000.20
2019-04-03T00:40:44.633Z,1000.14
2019-04-03T00:41:44.620Z,1000.19
2019-04-03T00:42:44.619Z,1000.23
2019-04-03T00:43:44.587Z,1000.18
2019-04-03T00:44:44.577Z,1000.20
2019-04-03T00:45:44.568Z,1000.26
2019-04-03T00:46:44.566Z,1000.25
2019-04-03T00:47:44.546Z,1000.33
2019-04-03T00:48:44.538Z,1000.32
2019-04-03T00:49:44.555Z,1000.35
2019-04-03T00:50:44.520Z,1000.36
2019-04-03T00:51:44.498Z,1000.36
2019-04-03T00:52:44.500Z,1000.39
2019-04-03T00:53:44.496Z,1000.38
2019-04-03T00:54:44.471Z,1000.35
2019-04-03T00:55:44.484Z,1000.34
2019-04-03T00:56:44.493Z,1000.28
2019-04-03T00:57:44.436Z,1000.33
2019-04-03T00:58:44.428Z,1000.29
2019-04-03T00:59:44.409Z,1000.27
2019-04-03T01:00:44.399Z,1000.35
2019-04-03T01:01:44.406Z,1000.34
2019-04-03T01:02:44.391Z,1000.31
2019-04-03T01:03:44.364Z,1000.27
2019-04-03T01:04:44.365Z,1000.29
2019-04-03T01:05:44.359Z,1000.26
2019-04-03T01:06:44.356Z,1000.31
2019-04-03T01:07:44.329Z,1000.25
2019-04-03T01:08:44.317Z,1000.27
2019-04-03T01:09:44.305Z,1000.25
2019-04-03T01:10:44.294Z,1000.33
2019-04-03T01:11:44.374Z,1000.25
2019-04-03T01:12:44.271Z,1000.24
2019-04-03T01:13:44.266Z,1000.18
2019-04-03T01:14:44.262Z,1000.18
2019-04-03T01:15:44.261Z,1000.15
2019-04-03T01:16:44.228Z,1000.18
2019-04-03T01:17:44.420Z,1000.21
2019-04-03T01:18:44.205Z,1000.18
2019-04-03T01:19:44.201Z,1000.15
2019-04-03T01:20:44.330Z,1000.10
2019-04-03T01:21:44.174Z,1000.14
2019-04-03T01:22:44.157Z,1000.08
2019-04-03T01:23:44.187Z,1000.08
2019-04-03T01:24:44.138Z,1000.12
2019-04-03T01:25:44.126Z,1000.14
2019-04-03T01:26:44.114Z,1000.07
2019-04-03T01:27:44.114Z,1000.06
2019-04-03T01:28:44.089Z,1000.02
2019-04-03T01:29:44.110Z,1000.01
2019-04-03T01:30:44.707Z,1000.01
2019-04-03T01:31:44.715Z,1000.01
2019-04-03T01:32:46.139Z,999.99
2019-04-03T01:33:46.093Z,1000.00
2019-04-03T01:34:44.020Z,999.96
2019-04-03T01:35:44.078Z,999.96
2019-04-03T01:36:44.006Z,999.97
2019-04-03T01:37:43.989Z,999.93
2019-04-03T01:38:43.995Z,999.93
2019-04-03T01:39:43.971Z,999.90
2019-04-03T01:40:44.069Z,999.93
2019-04-03T01:41:43.949Z,999.87
2019-04-03T01:42:44.030Z,999.88
2019-04-03T01:43:43.927Z,999.85
2019-04-03T01:44:44.071Z,999.82
2019-04-03T01:45:43.901Z,999.82
2019-04-03T01:46:43.905Z,999.82
2019-04-03T01:47:43.881Z,999.78
2019-04-03T01:48:43.876Z,999.81
2019-04-03T01:49:44.008Z,999.72
2019-04-03T01:50:43.845Z,999.74
2019-04-03T01:51:43.929Z,999.70
2019-04-03T01:52:43.828Z,999.68
2019-04-03T01:53:43.812Z,999.68
2019-04-03T01:54:43.806Z,999.65
2019-04-03T01:55:43.929Z,999.68
2019-04-03T01:56:43.779Z,999.67
2019-04-03T01:57:43.880Z,999.63
2019-04-03T01:58:43.764Z,999.60
2019-04-03T01:59:43.749Z,999.60
2019-04-03T02:00:43.734Z,999.55
2019-04-03T02:01:43.892Z,999.56
2019-04-03T02:02:43.711Z,999.57
2019-04-03T02:03:43.707Z,999.59
2019-04-03T02:04:43.696Z,999.57
2019-04-03T02:05:44.127Z,999.55
2019-04-03T02:06:44.341Z,999.52
2019-04-03T02:07:44.747Z,999.53
2019-04-03T02:08:44.931Z,999.49
2019-04-03T02:09:46.146Z,999.59
2019-04-03T02:10:43.631Z,999.61
2019-04-03T02:11:43.630Z,999.68
2019-04-03T02:12:43.601Z,999.70
2019-04-03T02:13:43.654Z,999.73
2019-04-03T02:14:43.577Z,999.74
2019-04-03T02:15:43.568Z,999.74
2019-04-03T02:16:43.703Z,999.69
2019-04-03T02:17:43.556Z,999.60
2019-04-03T02:18:43.535Z,999.62
2019-04-03T02:19:43.652Z,999.64
2019-04-03T02:20:43.516Z,999.60
2019-04-03T02:21:43.502Z,999.65
2019-04-03T02:22:43.527Z,999.57
2019-04-03T02:23:43.543Z,999.58
2019-04-03T02:24:43.461Z,999.50
2019-04-03T02:25:43.488Z,999.53
2019-04-03T02:26:43.452Z,999.50
2019-04-03T02:27:43.507Z,999.47
2019-04-03T02:28:43.434Z,999.45
2019-04-03T02:29:43.495Z,999.52
2019-04-03T02:30:46.135Z,999.44
2019-04-03T02:31:43.408Z,999.43
2019-04-03T02:32:43.681Z,999.43
2019-04-03T02:33:43.422Z,999.43
2019-04-03T02:34:43.352Z,999.46
2019-04-03T02:35:43.348Z,999.43
2019-04-03T02:36:44.911Z,999.45
2019-04-03T02:37:43.319Z,999.47
2019-04-03T02:38:43.326Z,999.48
2019-04-03T02:39:43.396Z,999.41
2019-04-03T02:40:43.297Z,999.42
2019-04-03T02:41:43.279Z,999.44
2019-04-03T02:42:43.333Z,999.43
2019-04-03T02:43:46.339Z,999.43
2019-04-03T02:44:43.655Z,999.41
2019-04-03T02:45:43.243Z,999.41
2019-04-03T02:46:43.223Z,999.36
2019-04-03T02:47:43.275Z,999.40
2019-04-03T02:48:43.345Z,999.38
2019-04-03T02:49:43.885Z,999.36
2019-04-03T02:50:46.659Z,999.37
2019-04-03T02:51:43.167Z,999.39
2019-04-03T02:52:43.158Z,999.42
2019-04-03T02:53:43.199Z,999.39
2019-04-03T02:54:43.151Z,999.36
2019-04-03T02:55:43.124Z,999.39
2019-04-03T02:56:45.476Z,999.43
2019-04-03T02:57:43.184Z,999.40
2019-04-03T02:58:43.089Z,999.40
2019-04-03T02:59:43.083Z,999.40
2019-04-03T03:00:43.476Z,999.52
2019-04-03T03:01:43.060Z,999.49
2019-04-03T03:02:45.354Z,999.58
2019-04-03T03:03:43.659Z,999.54
2019-04-03T03:04:43.028Z,999.52
2019-04-03T03:05:43.063Z,999.54
2019-04-03T03:06:43.011Z,999.54
2019-04-03T03:07:43.106Z,999.64
2019-04-03T03:08:43.122Z,999.62
2019-04-03T03:09:45.948Z,999.52
2019-04-03T03:10:42.968Z,999.53
2019-04-03T03:11:42.961Z,999.56
2019-04-03T03:12:43.009Z,999.63
2019-04-03T03:13:43.239Z,999.56
2019-04-03T03:14:42.912Z,999.63
2019-04-03T03:15:44.328Z,999.63
2019-04-03T03:16:42.933Z,999.59
2019-04-03T03:17:42.882Z,999.57
2019-04-03T03:18:42.863Z,999.60
2019-04-03T03:19:42.854Z,999.57
2019-04-03T03:20:42.896Z,999.56
2019-04-03T03:21:44.744Z,999.55
2019-04-03T03:22:43.062Z,999.56
2019-04-03T03:23:42.810Z,999.58
2019-04-03T03:24:42.812Z,999.49
2019-04-03T03:25:42.795Z,999.49
2019-04-03T03:26:42.799Z,999.46
2019-04-03T03:27:43.272Z,999.42
2019-04-03T03:28:45.680Z,999.44
2019-04-03T03:29:42.752Z,999.43
2019-04-03T03:30:54.044Z,999.51
2019-04-03T03:32:06.381Z,999.53
2019-04-03T03:32:44.043Z,999.48
2019-04-03T03:33:43.501Z,999.53
2019-04-03T03:34:53.837Z,999.53
2019-04-03T03:35:47.146Z,999.52
2019-04-03T03:36:44.008Z,999.49
2019-04-03T03:37:42.923Z,999.41
2019-04-03T03:38:42.883Z,999.41
2019-04-03T03:39:44.078Z,999.41
2019-04-03T03:40:42.629Z,999.36
2019-04-03T03:41:42.709Z,999.39
2019-04-03T03:42:42.638Z,999.39
2019-04-03T03:43:42.971Z,999.33
2019-04-03T03:44:45.523Z,999.38
2019-04-03T03:45:42.579Z,999.32
2019-04-03T03:46:42.771Z,999.34
2019-04-03T03:47:42.564Z,999.33
2019-04-03T03:48:44.204Z,999.27
2019-04-03T03:49:42.535Z,999.32
2019-04-03T03:50:42.514Z,999.22
2019-04-03T03:51:42.722Z,999.29
2019-04-03T03:52:42.893Z,999.29
2019-04-03T03:53:44.807Z,999.33
2019-04-03T03:54:42.813Z,999.32
2019-04-03T03:55:42.460Z,999.29
2019-04-03T03:56:42.577Z,999.38
2019-04-03T03:57:42.447Z,999.40
2019-04-03T03:58:44.590Z,999.41
2019-04-03T03:59:42.716Z,999.39
2019-04-03T04:00:42.425Z,999.42
2019-04-03T04:01:42.386Z,999.41
2019-04-03T04:02:44.548Z,999.44
2019-04-03T04:03:42.510Z,999.40
2019-04-03T04:04:46.675Z,999.40
2019-04-03T04:05:43.466Z,999.36
2019-04-03T04:06:42.754Z,999.39
2019-04-03T04:07:42.324Z,999.45
2019-04-03T04:08:44.293Z,999.41
2019-04-03T04:09:42.353Z,999.43
2019-04-03T04:10:42.321Z,999.51
2019-04-03T04:11:42.282Z,999.48
2019-04-03T04:12:42.624Z,999.48
2019-04-03T04:13:42.820Z,999.54
2019-04-03T04:14:42.285Z,999.58
2019-04-03T04:15:42.514Z,999.60
2019-04-03T04:16:42.245Z,999.68
2019-04-03T04:17:42.542Z,999.57
2019-04-03T04:18:42.213Z,999.55
2019-04-03T04:19:42.189Z,999.51
2019-04-03T04:20:42.247Z,999.53
2019-04-03T04:21:43.919Z,999.44
2019-04-03T04:22:42.160Z,999.43
2019-04-03T04:23:42.144Z,999.37
2019-04-03T04:24:42.131Z,999.38
2019-04-03T04:25:44.190Z,999.40
2019-04-03T04:26:42.126Z,999.36
2019-04-03T04:27:42.104Z,999.33
2019-04-03T04:28:42.097Z,999.42
2019-04-03T04:29:42.270Z,999.44
2019-04-03T04:30:42.509Z,999.47
2019-04-03T04:31:44.292Z,999.47
2019-04-03T04:32:42.363Z,999.52
2019-04-03T04:33:42.041Z,999.50
2019-04-03T04:34:42.030Z,999.44
2019-04-03T04:35:42.014Z,999.54
2019-04-03T04:36:42.020Z,999.54
2019-04-03T04:37:42.067Z,999.45
2019-04-03T04:38:41.992Z,999.48
2019-04-03T04:39:42.145Z,999.48
2019-04-03T04:40:41.959Z,999.40
2019-04-03T04:41:41.959Z,999.41
2019-04-03T04:42:42.090Z,999.43
2019-04-03T04:43:42.081Z,999.38
2019-04-03T04:44:41.909Z,999.35
2019-04-03T04:45:42.706Z,999.36
2019-04-03T04:46:43.600Z,999.35
2019-04-03T04:47:41.876Z,999.28
2019-04-03T04:48:42.002Z,999.30
2019-04-03T04:49:41.909Z,999.34
2019-04-03T04:50:41.842Z,999.26
2019-04-03T04:51:41.844Z,999.25
2019-04-03T04:52:41.836Z,999.29
2019-04-03T04:53:41.815Z,999.33
2019-04-03T04:54:43.013Z,999.31
2019-04-03T04:55:41.797Z,999.28
2019-04-03T04:56:41.782Z,999.32
2019-04-03T04:57:41.778Z,999.30
2019-04-03T04:58:42.933Z,999.28
2019-04-03T04:59:42.990Z,999.32
2019-04-03T05:00:41.749Z,999.30
2019-04-03T05:01:41.956Z,999.30
2019-04-03T05:02:41.726Z,999.39
2019-04-03T05:03:41.771Z,999.32
2019-04-03T05:04:41.692Z,999.35
2019-04-03T05:05:41.678Z,999.39
2019-04-03T05:06:41.806Z,999.34
2019-04-03T05:07:41.687Z,999.39
2019-04-03T05:08:41.645Z,999.40
2019-04-03T05:09:41.639Z,999.38
2019-04-03T05:10:41.795Z,999.42
2019-04-03T05:11:41.621Z,999.39
2019-04-03T05:12:44.755Z,999.45
2019-04-03T05:13:41.600Z,999.46
2019-04-03T05:14:41.583Z,999.42
2019-04-03T05:15:41.743Z,999.46
2019-04-03T05:16:41.559Z,999.47
2019-04-03T05:17:41.668Z,999.46
2019-04-03T05:18:41.573Z,999.41
2019-04-03T05:19:41.724Z,999.40
2019-04-03T05:20:41.517Z,999.43
2019-04-03T05:21:41.503Z,999.42
2019-04-03T05:22:41.499Z,999.45
2019-04-03T05:23:41.585Z,999.48
2019-04-03T05:24:41.485Z,999.38
2019-04-03T05:25:41.463Z,999.46
2019-04-03T05:26:41.623Z,999.44
2019-04-03T05:27:41.438Z,999.44
2019-04-03T05:28:53.297Z,999.40
2019-04-03T05:29:42.425Z,999.42
2019-04-03T05:30:41.406Z,999.36
2019-04-03T05:31:41.624Z,999.35
2019-04-03T05:32:41.635Z,999.34
2019-04-03T05:33:42.322Z,999.34
2019-04-03T05:34:43.515Z,999.33
2019-04-03T05:35:41.350Z,999.30
2019-04-03T05:36:41.626Z,999.33
2019-04-03T05:37:41.349Z,999.38
2019-04-03T05:38:41.316Z,999.37
2019-04-03T05:39:41.303Z,999.32
2019-04-03T05:40:41.304Z,999.40
2019-04-03T05:41:41.286Z,999.37
2019-04-03T05:42:41.273Z,999.39
2019-04-03T05:43:41.415Z,999.38
2019-04-03T05:44:41.252Z,999.42
2019-04-03T05:45:42.256Z,999.42
2019-04-03T05:46:41.230Z,999.48
2019-04-03T05:47:41.397Z,999.42
2019-04-03T05:48:41.466Z,999.39
2019-04-03T05:49:41.196Z,999.37
2019-04-03T05:50:41.204Z,999.36
2019-04-03T05:51:41.334Z,999.36
2019-04-03T05:52:41.163Z,999.34
2019-04-03T05:53:41.146Z,999.37
2019-04-03T05:54:43.930Z,999.33
2019-04-03T05:55:41.766Z,999.39
2019-04-03T05:56:42.945Z,999.46
2019-04-03T05:57:41.110Z,999.41
2019-04-03T05:58:54.042Z,999.42
2019-04-03T05:59:43.560Z,999.38
2019-04-03T06:00:41.099Z,999.39
2019-04-03T06:01:42.622Z,999.43
2019-04-03T06:02:41.049Z,999.47
2019-04-03T06:03:44.867Z,999.42
2019-04-03T06:04:41.722Z,999.45
2019-04-03T06:05:41.853Z,999.37
2019-04-03T06:06:41.027Z,999.38
2019-04-03T06:07:41.004Z,999.38
2019-04-03T06:08:40.982Z,999.36
2019-04-03T06:09:40.977Z,999.36
2019-04-03T06:10:40.962Z,999.35
2019-04-03T06:11:41.224Z,999.36
2019-04-03T06:12:40.958Z,999.32
2019-04-03T06:13:40.930Z,999.31
2019-04-03T06:14:40.917Z,999.37
2019-04-03T06:15:40.901Z,999.36
2019-04-03T06:16:40.900Z,999.39
2019-04-03T06:17:41.146Z,999.33
2019-04-03T06:18:40.895Z,999.36
2019-04-03T06:19:40.927Z,999.35
2019-04-03T06:20:42.593Z,999.34
2019-04-03T06:21:40.834Z,999.37
2019-04-03T06:22:40.979Z,999.32
2019-04-03T06:23:40.830Z,999.36
2019-04-03T06:24:40.813Z,999.29
2019-04-03T06:25:40.792Z,999.34
2019-04-03T06:26:41.641Z,999.30
2019-04-03T06:27:42.965Z,999.30
2019-04-03T06:28:42.536Z,999.31
2019-04-03T06:29:40.753Z,999.22
2019-04-03T06:30:40.734Z,999.25
2019-04-03T06:31:40.994Z,999.22
2019-04-03T06:32:40.718Z,999.18
2019-04-03T06:33:40.738Z,999.22
2019-04-03T06:34:43.351Z,999.19
2019-04-03T06:35:40.692Z,999.19
2019-04-03T06:36:40.681Z,999.14
2019-04-03T06:37:40.663Z,999.15
2019-04-03T06:38:40.910Z,999.17
2019-04-03T06:39:40.646Z,999.12
2019-04-03T06:40:40.658Z,999.17
2019-04-03T06:41:42.027Z,999.21
2019-04-03T06:42:40.600Z,999.23
2019-04-03T06:43:40.599Z,999.26
2019-04-03T06:44:40.595Z,999.23
2019-04-03T06:45:43.023Z,999.21
2019-04-03T06:46:40.567Z,999.30
2019-04-03T06:47:40.587Z,999.24
2019-04-03T06:48:40.536Z,999.28
2019-04-03T06:49:41.089Z,999.28
2019-04-03T06:50:40.513Z,999.24
2019-04-03T06:51:40.512Z,999.32
2019-04-03T06:52:40.498Z,999.29
2019-04-03T06:53:40.480Z,999.28
2019-04-03T06:54:40.471Z,999.23
2019-04-03T06:55:40.468Z,999.29
2019-04-03T06:56:41.257Z,999.32
2019-04-03T06:57:40.436Z,999.31
2019-04-03T06:58:43.611Z,999.28
2019-04-03T06:59:40.415Z,999.24
2019-04-03T07:00:40.409Z,999.24
2019-04-03T07:01:40.672Z,999.22
2019-04-03T07:02:40.386Z,999.26
2019-04-03T07:03:40.369Z,999.22
2019-04-03T07:04:40.362Z,999.15
2019-04-03T07:05:41.687Z,999.22
2019-04-03T07:06:42.805Z,999.15
2019-04-03T07:07:40.552Z,999.14
2019-04-03T07:08:41.145Z,999.21
2019-04-03T07:09:40.302Z,999.18
2019-04-03T07:10:40.480Z,999.16
2019-04-03T07:11:40.284Z,999.25
2019-04-03T07:12:40.378Z,999.23
2019-04-03T07:13:40.410Z,999.22
2019-04-03T07:14:40.248Z,999.27
2019-04-03T07:15:40.233Z,999.20
2019-04-03T07:16:40.236Z,999.34
2019-04-03T07:17:40.222Z,999.24
2019-04-03T07:18:40.201Z,999.33
2019-04-03T07:19:40.277Z,999.28
2019-04-03T07:20:40.182Z,999.29
2019-04-03T07:21:40.167Z,999.29
2019-04-03T07:22:40.164Z,999.38
2019-04-03T07:23:40.162Z,999.34
2019-04-03T07:24:40.131Z,999.36
2019-04-03T07:25:40.129Z,999.34
2019-04-03T07:26:40.111Z,999.31
2019-04-03T07:27:42.226Z,999.30
2019-04-03T07:28:41.501Z,999.36
2019-04-03T07:29:40.115Z,999.35
2019-04-03T07:30:40.065Z,999.26
2019-04-03T07:31:40.059Z,999.28
2019-04-03T07:32:40.108Z,999.26
2019-04-03T07:33:40.033Z,999.26
2019-04-03T07:34:40.027Z,999.17
2019-04-03T07:35:40.654Z,999.17
2019-04-03T07:36:41.404Z,999.22
2019-04-03T07:37:40.036Z,999.23
2019-04-03T07:38:40.006Z,999.26
2019-04-03T07:39:39.959Z,999.31
2019-04-03T07:40:39.949Z,999.28
2019-04-03T07:41:41.559Z,999.30
2019-04-03T07:42:40.000Z,999.29
2019-04-03T07:43:40.045Z,999.28
2019-04-03T07:44:39.916Z,999.30
2019-04-03T07:45:39.913Z,999.29
2019-04-03T07:46:39.927Z,999.30
2019-04-03T07:47:39.878Z,999.32
2019-04-03T07:48:39.914Z,999.31
2019-04-03T07:49:40.263Z,999.30
2019-04-03T07:50:41.967Z,999.34
2019-04-03T07:51:39.827Z,999.35
2019-04-03T07:52:39.820Z,999.33
2019-04-03T07:53:39.805Z,999.27
2019-04-03T07:54:40.448Z,999.41
2019-04-03T07:55:39.783Z,999.39
2019-04-03T07:56:39.771Z,999.40
2019-04-03T07:57:41.397Z,999.39
2019-04-03T07:58:39.751Z,999.36
2019-04-03T07:59:39.770Z,999.36
2019-04-03T08:00:39.830Z,999.32
2019-04-03T08:01:41.653Z,999.30
2019-04-03T08:02:39.722Z,999.28
2019-04-03T08:03:39.699Z,999.27
2019-04-03T08:04:39.975Z,999.27
2019-04-03T08:05:39.683Z,999.33
2019-04-03T08:06:39.669Z,999.29
2019-04-03T08:07:39.657Z,999.23
2019-04-03T08:08:39.646Z,999.27
2019-04-03T08:09:39.833Z,999.24
2019-04-03T08:10:39.662Z,999.28
2019-04-03T08:11:39.615Z,999.21
2019-04-03T08:12:39.623Z,999.22
2019-04-03T08:13:39.582Z,999.20
2019-04-03T08:14:41.206Z,999.30
2019-04-03T08:15:40.152Z,999.24
2019-04-03T08:16:42.062Z,999.30
2019-04-03T08:17:39.542Z,999.23
2019-04-03T08:18:39.537Z,999.29
2019-04-03T08:19:39.521Z,999.22
2019-04-03T08:20:39.515Z,999.25
2019-04-03T08:21:39.807Z,999.30
2019-04-03T08:22:39.526Z,999.27
2019-04-03T08:23:39.470Z,999.26
2019-04-03T08:24:40.134Z,999.27
2019-04-03T08:25:42.183Z,999.22
2019-04-03T08:26:39.450Z,999.23
2019-04-03T08:27:39.436Z,999.25
2019-04-03T08:28:39.415Z,999.19
2019-04-03T08:29:39.446Z,999.22
2019-04-03T08:30:40.603Z,999.20
2019-04-03T08:31:42.497Z,999.16
2019-04-03T08:32:39.374Z,999.23
2019-04-03T08:33:39.358Z,999.20
2019-04-03T08:34:39.359Z,999.19
2019-04-03T08:35:39.422Z,999.20
2019-04-03T08:36:39.939Z,999.16
2019-04-03T08:37:41.676Z,999.06
2019-04-03T08:38:39.653Z,999.11
2019-04-03T08:39:39.297Z,999.04
2019-04-03T08:40:39.292Z,999.07
2019-04-03T08:41:39.270Z,999.15
2019-04-03T08:42:39.564Z,999.04
2019-04-03T08:43:39.250Z,999.11
2019-04-03T08:44:39.241Z,999.08
2019-04-03T08:45:39.647Z,999.09
2019-04-03T08:46:43.039Z,999.10
2019-04-03T08:47:39.207Z,999.06
2019-04-03T08:48:39.480Z,999.05
2019-04-03T08:49:39.189Z,998.98
2019-04-03T08:50:39.172Z,998.93
2019-04-03T08:51:39.161Z,998.92
2019-04-03T08:52:39.152Z,998.88
2019-04-03T08:53:39.737Z,998.91
2019-04-03T08:54:41.354Z,998.91
2019-04-03T08:55:39.181Z,998.91
2019-04-03T08:56:39.109Z,998.79
2019-04-03T08:57:39.098Z,998.84
2019-04-03T08:58:39.180Z,998.88
2019-04-03T08:59:39.135Z,998.86
2019-04-03T09:00:39.061Z,998.81
2019-04-03T09:01:39.409Z,998.82
2019-04-03T09:02:39.043Z,998.84
2019-04-03T09:03:39.041Z,998.80
2019-04-03T09:04:39.079Z,998.82
2019-04-03T09:05:39.016Z,998.75
2019-04-03T09:06:39.000Z,998.74
2019-04-03T09:07:39.331Z,998.80
2019-04-03T09:08:39.025Z,998.79
2019-04-03T09:09:38.960Z,998.75
2019-04-03T09:10:38.948Z,998.83
2019-04-03T09:11:38.963Z,998.77
2019-04-03T09:12:39.000Z,998.83
2019-04-03T09:13:38.921Z,998.72
2019-04-03T09:14:38.918Z,998.81
2019-04-03T09:15:38.897Z,998.81
2019-04-03T09:16:38.980Z,998.70
2019-04-03T09:17:39.101Z,998.72
2019-04-03T09:18:38.862Z,998.69
2019-04-03T09:19:41.053Z,998.76
2019-04-03T09:20:39.003Z,998.68
2019-04-03T09:21:38.924Z,998.69
2019-04-03T09:22:38.820Z,998.67
2019-04-03T09:23:38.910Z,998.66
2019-04-03T09:24:38.839Z,998.67
2019-04-03T09:25:39.068Z,998.68
2019-04-03T09:26:38.835Z,998.67
2019-04-03T09:27:40.606Z,998.66
2019-04-03T09:28:41.266Z,998.59
2019-04-03T09:29:38.743Z,998.61
2019-04-03T09:30:39.044Z,998.56
2019-04-03T09:31:38.722Z,998.58
2019-04-03T09:32:38.718Z,998.53
2019-04-03T09:33:38.703Z,998.53
2019-04-03T09:34:38.694Z,998.43
2019-04-03T09:35:38.763Z,998.54
2019-04-03T09:36:38.663Z,998.52
2019-04-03T09:37:38.835Z,998.49
2019-04-03T09:38:40.715Z,998.45
2019-04-03T09:39:38.639Z,998.44
2019-04-03T09:40:38.619Z,998.44
2019-04-03T09:41:38.612Z,998.43
2019-04-03T09:42:38.607Z,998.44
2019-04-03T09:43:39.661Z,998.27
2019-04-03T09:44:38.580Z,998.34
2019-04-03T09:45:38.829Z,998.32
2019-04-03T09:46:38.833Z,998.27
2019-04-03T09:47:38.568Z,998.29
2019-04-03T09:48:39.169Z,998.28
2019-04-03T09:49:42.694Z,998.23
2019-04-03T09:50:39.512Z,998.22
2019-04-03T09:51:38.534Z,998.16
2019-04-03T09:52:46.141Z,998.16
2019-04-03T09:53:39.482Z,998.16
2019-04-03T09:54:38.470Z,998.17
2019-04-03T09:55:38.767Z,998.18
2019-04-03T09:56:54.902Z,998.07
2019-04-03T09:57:39.737Z,998.03
2019-04-03T09:58:38.542Z,998.18
2019-04-03T09:59:38.598Z,998.06
2019-04-03T10:00:41.342Z,998.09
2019-04-03T10:01:38.653Z,998.08
2019-04-03T10:02:38.422Z,998.09
2019-04-03T10:03:38.372Z,998.09
2019-04-03T10:04:38.432Z,998.01
2019-04-03T10:05:38.567Z,998.03
2019-04-03T10:06:38.383Z,997.99
2019-04-03T10:07:38.378Z,998.02
2019-04-03T10:08:40.414Z,998.00
2019-04-03T10:09:39.123Z,997.99
2019-04-03T10:10:38.302Z,997.96
2019-04-03T10:11:39.385Z,997.92
2019-04-03T10:12:38.367Z,998.00
2019-04-03T10:13:38.386Z,997.95
2019-04-03T10:14:38.272Z,997.91
2019-04-03T10:15:38.308Z,997.91
2019-04-03T10:16:38.509Z,997.95
2019-04-03T10:17:39.114Z,997.95
2019-04-03T10:18:39.085Z,997.92
2019-04-03T10:19:38.215Z,997.87
2019-04-03T10:20:38.185Z,997.85
2019-04-03T10:21:38.517Z,997.93
2019-04-03T10:22:38.473Z,997.91
2019-04-03T10:23:38.167Z,997.88
2019-04-03T10:24:38.154Z,997.84
2019-04-03T10:25:38.441Z,997.84
2019-04-03T10:26:40.553Z,997.90
2019-04-03T10:27:38.110Z,997.82
2019-04-03T10:28:38.100Z,997.78
2019-04-03T10:29:38.099Z,997.84
2019-04-03T10:30:38.330Z,997.84
2019-04-03T10:31:38.322Z,997.75
2019-04-03T10:32:38.052Z,997.75
2019-04-03T10:33:38.043Z,997.82
2019-04-03T10:34:38.043Z,997.71
2019-04-03T10:35:39.347Z,997.74
2019-04-03T10:36:38.015Z,997.71
2019-04-03T10:37:38.043Z,997.70
2019-04-03T10:38:37.988Z,997.72
2019-04-03T10:39:41.940Z,997.78
2019-04-03T10:40:38.974Z,997.74
2019-04-03T10:41:37.955Z,997.68
2019-04-03T10:42:38.101Z,997.68
2019-04-03T10:43:37.960Z,997.63
2019-04-03T10:44:37.927Z,997.65
2019-04-03T10:45:38.159Z,997.62
2019-04-03T10:46:37.928Z,997.60
2019-04-03T10:47:43.113Z,997.57
2019-04-03T10:48:39.065Z,997.49
2019-04-03T10:49:38.032Z,997.53
2019-04-03T10:50:38.644Z,997.55
2019-04-03T10:51:40.577Z,997.50
2019-04-03T10:52:38.133Z,997.52
2019-04-03T10:53:37.859Z,997.47
2019-04-03T10:54:38.570Z,997.49
2019-04-03T10:55:37.945Z,997.53
2019-04-03T10:56:37.800Z,997.48
2019-04-03T10:57:37.785Z,997.52
2019-04-03T10:58:38.390Z,997.53
2019-04-03T10:59:38.076Z,997.48
2019-04-03T11:00:38.210Z,997.46
2019-04-03T11:01:37.810Z,997.45
2019-04-03T11:02:37.737Z,997.51
2019-04-03T11:03:37.719Z,997.45
2019-04-03T11:04:37.709Z,997.40
2019-04-03T11:05:37.696Z,997.47
2019-04-03T11:06:37.910Z,997.45
2019-04-03T11:07:37.902Z,997.46
2019-04-03T11:08:37.659Z,997.44
2019-04-03T11:09:37.943Z,997.45
2019-04-03T11:10:37.644Z,997.43
2019-04-03T11:11:37.756Z,997.36
2019-04-03T11:12:38.041Z,997.35
2019-04-03T11:13:37.610Z,997.34
2019-04-03T11:14:39.232Z,997.34
2019-04-03T11:15:37.591Z,997.32
2019-04-03T11:16:39.396Z,997.26
2019-04-03T11:17:37.573Z,997.25
2019-04-03T11:18:37.567Z,997.23
2019-04-03T11:19:38.217Z,997.19
2019-04-03T11:20:38.880Z,997.21
2019-04-03T11:21:37.699Z,997.20
2019-04-03T11:22:42.714Z,997.18
2019-04-03T11:23:44.025Z,997.13
2019-04-03T11:24:41.895Z,997.13
2019-04-03T11:25:40.924Z,997.12
2019-04-03T11:26:37.504Z,997.08
2019-04-03T11:27:43.348Z,997.02
2019-04-03T11:28:39.022Z,997.06
2019-04-03T11:29:37.582Z,997.01
2019-04-03T11:30:37.660Z,997.01
2019-04-03T11:31:41.474Z,997.01
2019-04-03T11:32:40.706Z,996.97
2019-04-03T11:33:37.773Z,996.94
2019-04-03T11:34:37.390Z,996.99
2019-04-03T11:35:37.385Z,996.94
2019-04-03T11:36:37.436Z,996.95
2019-04-03T11:37:37.341Z,996.94
2019-04-03T11:38:37.338Z,996.98
2019-04-03T11:39:37.911Z,996.93
2019-04-03T11:40:37.309Z,996.88
2019-04-03T11:41:37.312Z,996.93
2019-04-03T11:42:37.292Z,996.91
2019-04-03T11:43:37.293Z,996.90
2019-04-03T11:44:37.301Z,996.81
2019-04-03T11:45:37.262Z,996.86
2019-04-03T11:46:37.632Z,996.91
2019-04-03T11:47:37.252Z,996.90
2019-04-03T11:48:37.255Z,996.86
2019-04-03T11:49:37.212Z,996.85
2019-04-03T11:50:39.408Z,996.80
2019-04-03T11:51:37.376Z,996.77
2019-04-03T11:52:37.180Z,996.77
2019-04-03T11:53:37.168Z,996.80
2019-04-03T11:54:39.502Z,996.53
2019-04-03T11:55:37.147Z,996.73
2019-04-03T11:56:37.157Z,996.71
2019-04-03T11:57:37.437Z,996.75
2019-04-03T11:58:37.123Z,996.74
2019-04-03T11:59:37.104Z,996.56
2019-04-03T12:00:37.099Z,996.64
2019-04-03T12:01:37.413Z,996.62
2019-04-03T12:02:39.096Z,996.65
2019-04-03T12:03:37.062Z,996.61
2019-04-03T12:04:37.048Z,996.57
2019-04-03T12:05:37.235Z,996.57
2019-04-03T12:06:37.039Z,996.62
2019-04-03T12:07:37.339Z,996.57
2019-04-03T12:08:37.046Z,996.55
2019-04-03T12:09:37.069Z,996.52
2019-04-03T12:10:37.493Z,996.56
2019-04-03T12:11:38.391Z,996.56
2019-04-03T12:12:37.096Z,996.52
2019-04-03T12:13:36.951Z,996.49
2019-04-03T12:14:37.050Z,996.54
2019-04-03T12:15:36.966Z,996.45
2019-04-03T12:16:37.073Z,996.52
2019-04-03T12:17:36.956Z,996.54
2019-04-03T12:18:37.269Z,996.57
2019-04-03T12:19:37.835Z,996.56
2019-04-03T12:20:41.224Z,996.51
2019-04-03T12:21:38.073Z,996.48
2019-04-03T12:22:36.849Z,996.48
2019-04-03T12:23:39.187Z,996.45
2019-04-03T12:24:36.835Z,996.35
2019-04-03T12:25:39.536Z,996.35